createdAt,value
2019-04-19T00:01:44.146Z,38.20
2019-04-19T00:04:09.318Z,38.60
2019-04-19T00:06:39.690Z,38.80
2019-04-19T00:09:20.230Z,37.40
2019-04-19T00:11:43.945Z,38.30
2019-04-19T00:14:07.001Z,37.00
2019-04-19T00:16:34.836Z,36.10
2019-04-19T00:19:24.757Z,36.90
2019-04-19T00:22:00.700Z,37.60
2019-04-19T00:24:02.304Z,36.60
2019-04-19T00:26:30.139Z,35.70
2019-04-19T00:29:03.521Z,38.00
2019-04-19T00:31:37.320Z,36.80
2019-04-19T00:33:59.254Z,36.90
2019-04-19T00:36:27.760Z,38.00
2019-04-19T00:39:18.498Z,37.20
2019-04-19T00:42:04.987Z,39.00
2019-04-19T00:44:50.543Z,38.90
2019-04-19T00:47:17.779Z,40.20
2019-04-19T00:49:34.684Z,40.40
2019-04-19T00:52:09.753Z,41.10
2019-04-19T00:54:34.376Z,40.70
2019-04-19T00:57:03.403Z,41.20
2019-04-19T00:59:33.136Z,41.60
2019-04-19T01:02:03.222Z,40.90
2019-04-19T01:04:29.925Z,41.60
2019-04-19T01:07:00.495Z,42.40
2019-04-19T01:09:38.331Z,42.80
2019-04-19T01:12:10.698Z,43.20
2019-04-19T01:14:36.412Z,43.50
2019-04-19T01:17:13.903Z,42.00
2019-04-19T01:19:25.812Z,44.00
2019-04-19T01:21:53.766Z,43.50
2019-04-19T01:24:25.583Z,43.40
2019-04-19T01:26:54.741Z,43.10
2019-04-19T01:29:23.067Z,42.80
2019-04-19T01:31:58.327Z,42.20
2019-04-19T01:34:25.717Z,41.70
2019-04-19T01:36:52.669Z,41.70
2019-04-19T01:39:32.167Z,43.10
2019-04-19T01:42:00.169Z,43.20
2019-04-19T01:44:51.866Z,42.50
2019-04-19T01:47:42.066Z,43.40
2019-04-19T01:50:36.105Z,44.00
2019-04-19T01:53:03.535Z,43.80
2019-04-19T01:55:20.614Z,41.80
2019-04-19T01:57:43.333Z,42.10
2019-04-19T02:00:24.394Z,43.80
2019-04-19T02:02:50.185Z,44.20
2019-04-19T02:05:17.698Z,44.70
2019-04-19T02:07:49.730Z,45.70
2019-04-19T02:11:24.072Z,45.60
2019-04-19T02:13:51.105Z,45.90
2019-04-19T02:16:17.032Z,45.30
2019-04-19T02:18:41.143Z,45.60
2019-04-19T02:21:12.305Z,45.50
2019-04-19T02:23:45.515Z,45.60
2019-04-19T02:26:13.515Z,45.40
2019-04-19T02:28:41.397Z,44.50
2019-04-19T02:31:31.958Z,44.30
2019-04-19T02:34:14.216Z,43.80
2019-04-19T02:36:44.161Z,44.90
2019-04-19T02:39:18.039Z,45.70
2019-04-19T02:41:32.209Z,46.20
2019-04-19T02:44:09.299Z,46.20
2019-04-19T02:46:46.031Z,46.50
2019-04-19T02:49:09.457Z,46.80
2019-04-19T02:54:13.596Z,46.60
2019-04-19T02:57:02.263Z,46.30
2019-04-19T03:04:53.777Z,45.30
2019-04-19T03:06:51.834Z,46.30
2019-04-19T03:09:17.600Z,47.00
2019-04-19T03:11:56.046Z,47.10
2019-04-19T03:14:37.268Z,47.30
2019-04-19T03:17:05.483Z,47.10
2019-04-19T03:19:25.374Z,47.30
2019-04-19T03:21:59.660Z,46.90
2019-04-19T03:24:32.380Z,46.80
2019-04-19T03:26:55.449Z,47.00
2019-04-19T03:29:20.889Z,45.90
2019-04-19T03:32:22.672Z,46.50
2019-04-19T03:34:53.048Z,46.20
2019-04-19T03:36:57.767Z,45.60
2019-04-19T03:39:36.812Z,45.80
2019-04-19T03:42:34.972Z,45.90
2019-04-19T03:45:04.255Z,46.10
2019-04-19T03:47:37.750Z,46.30
2019-04-19T03:50:03.065Z,46.20
2019-04-19T03:52:31.835Z,46.40
2019-04-19T03:55:07.958Z,46.70
2019-04-19T03:57:23.087Z,46.40
2019-04-19T03:59:43.499Z,46.50
2019-04-19T04:02:15.295Z,45.30
2019-04-19T04:04:48.427Z,46.80
2019-04-19T04:07:17.464Z,45.60
2019-04-19T04:09:54.522Z,46.20
2019-04-19T04:12:42.668Z,45.50
2019-04-19T04:15:38.366Z,46.20
2019-04-19T04:17:54.231Z,46.40
2019-04-19T04:20:22.276Z,46.50
2019-04-19T04:22:51.294Z,47.00
2019-04-19T04:25:24.793Z,46.60
2019-04-19T04:28:02.584Z,46.90
2019-04-19T04:30:27.634Z,46.80
2019-04-19T04:33:02.929Z,46.40
2019-04-19T04:35:33.160Z,47.20
2019-04-19T04:38:01.517Z,47.40
2019-04-19T04:40:18.866Z,47.40
2019-04-19T04:43:01.567Z,47.40
2019-04-19T04:45:41.900Z,47.90
2019-04-19T04:48:10.217Z,47.60
2019-04-19T04:50:59.081Z,47.10
2019-04-19T04:53:10.898Z,47.70
2019-04-19T04:55:45.029Z,47.10
2019-04-19T04:58:20.042Z,47.60
2019-04-19T05:00:50.991Z,47.40
2019-04-19T05:03:32.736Z,47.10
2019-04-19T05:06:02.646Z,47.70
2019-04-19T05:08:29.628Z,47.60
2019-04-19T05:11:03.070Z,47.40
2019-04-19T05:13:27.647Z,47.30
2019-04-19T05:15:58.126Z,47.30
2019-04-19T05:18:33.040Z,47.00
2019-04-19T05:20:55.517Z,46.70
2019-04-19T05:23:32.248Z,47.00
2019-04-19T05:26:16.991Z,46.60
2019-04-19T05:28:33.332Z,46.90
2019-04-19T05:30:51.942Z,47.00
2019-04-19T05:33:26.763Z,45.50
2019-04-19T05:36:04.645Z,46.90
2019-04-19T05:38:51.842Z,46.40
2019-04-19T05:41:14.672Z,44.90
2019-04-19T05:46:49.227Z,44.90
2019-04-19T05:49:12.237Z,44.00
2019-04-19T05:51:48.928Z,43.80
2019-04-19T05:54:00.146Z,43.50
2019-04-19T05:56:26.260Z,41.60
2019-04-19T05:59:03.602Z,40.70
2019-04-19T06:01:42.668Z,39.70
2019-04-19T06:04:13.014Z,39.30
2019-04-19T06:06:51.336Z,38.80
2019-04-19T06:08:56.051Z,39.10
2019-04-19T06:11:30.013Z,38.40
2019-04-19T06:14:11.650Z,38.90
2019-04-19T06:16:39.512Z,38.90
2019-04-19T06:19:19.185Z,38.30
2019-04-19T06:21:46.065Z,39.20
2019-04-19T06:24:22.218Z,39.10
2019-04-19T06:29:23.866Z,38.20
2019-04-19T06:31:58.095Z,38.00
2019-04-19T06:34:21.619Z,38.00
2019-04-19T06:36:31.228Z,36.50
2019-04-19T06:38:59.469Z,37.10
2019-04-19T06:41:33.059Z,37.10
2019-04-19T06:44:08.936Z,36.90
2019-04-19T06:46:40.937Z,37.20
2019-04-19T06:49:03.115Z,37.50
2019-04-19T06:51:35.750Z,36.90
2019-04-19T06:54:01.722Z,36.60
2019-04-19T06:56:33.472Z,36.90
2019-04-19T06:59:08.218Z,36.10
2019-04-19T07:01:35.359Z,35.50
2019-04-19T07:03:55.884Z,35.00
2019-04-19T07:06:39.567Z,34.90
2019-04-19T07:09:21.017Z,33.90
2019-04-19T07:11:48.208Z,32.90
2019-04-19T07:14:03.648Z,32.90
2019-04-19T07:16:46.465Z,31.80
2019-04-19T07:19:13.387Z,31.40
2019-04-19T07:21:42.602Z,30.90
2019-04-19T07:24:23.597Z,29.70
2019-04-19T07:26:43.496Z,29.10
2019-04-19T07:28:55.777Z,28.40
2019-04-19T07:31:23.973Z,27.80
2019-04-19T07:34:06.583Z,27.40
2019-04-19T07:36:41.854Z,27.70
2019-04-19T07:39:08.897Z,27.30
2019-04-19T07:41:39.628Z,26.90
2019-04-19T07:44:21.263Z,26.30
2019-04-19T07:47:17.805Z,26.70
2019-04-19T07:49:46.464Z,27.20
2019-04-19T07:52:14.638Z,27.10
2019-04-19T07:54:38.639Z,27.30
2019-04-19T07:57:42.195Z,27.10
2019-04-19T08:00:01.047Z,27.70
2019-04-19T08:02:49.655Z,27.60
2019-04-19T08:05:06.459Z,27.70
2019-04-19T08:07:50.820Z,26.40
2019-04-19T08:10:12.450Z,25.80
2019-04-19T08:12:54.226Z,24.20
2019-04-19T08:15:17.097Z,22.20
2019-04-19T08:17:46.695Z,20.80
2019-04-19T08:29:50.383Z,16.20
2019-04-19T08:32:13.253Z,15.70
2019-04-19T08:34:43.224Z,15.70
2019-04-19T08:37:19.940Z,15.50
2019-04-19T08:39:58.379Z,15.50
2019-04-19T08:42:34.315Z,14.60
2019-04-19T08:44:53.611Z,14.80
2019-04-19T08:47:41.895Z,14.20
2019-04-19T08:50:24.466Z,14.90
2019-04-19T08:52:58.078Z,14.50
2019-04-19T08:55:40.590Z,14.50
2019-04-19T08:57:59.610Z,14.30
2019-04-19T09:00:52.748Z,14.40
2019-04-19T09:03:03.914Z,14.90
2019-04-19T09:05:42.169Z,14.40
2019-04-19T09:08:10.390Z,14.40
2019-04-19T09:10:41.237Z,14.60
2019-04-19T09:13:22.596Z,14.70
2019-04-19T09:15:37.051Z,14.10
2019-04-19T09:18:26.130Z,14.20
2019-04-19T09:20:41.428Z,14.00
2019-04-19T09:23:11.626Z,15.60
2019-04-19T09:26:05.820Z,13.50
2019-04-19T09:28:44.881Z,15.00
2019-04-19T09:31:15.957Z,14.10
2019-04-19T09:33:30.832Z,16.00
2019-04-19T09:36:03.282Z,15.50
2019-04-19T09:38:41.114Z,15.70
2019-04-19T09:41:01.441Z,15.60
2019-04-19T09:43:38.279Z,16.10
2019-04-19T09:45:55.400Z,16.20
2019-04-19T09:48:43.598Z,15.50
2019-04-19T09:51:07.611Z,15.50
2019-04-19T09:53:46.275Z,16.20
2019-04-19T09:56:11.649Z,17.00
2019-04-19T09:58:40.248Z,15.60
2019-04-19T10:01:04.385Z,14.90
2019-04-19T10:03:40.060Z,14.20
2019-04-19T10:06:04.515Z,16.30
2019-04-19T10:08:33.766Z,15.00
2019-04-19T10:11:03.025Z,15.30
2019-04-19T10:13:32.039Z,15.90
2019-04-19T10:16:08.276Z,16.20
2019-04-19T10:18:47.293Z,16.10
2019-04-19T10:21:32.384Z,15.20
2019-04-19T10:24:01.836Z,15.40
2019-04-19T10:26:34.256Z,16.00
2019-04-19T10:29:15.742Z,16.00
2019-04-19T10:31:52.273Z,16.80
2019-04-19T10:34:20.580Z,14.80
2019-04-19T10:36:50.627Z,16.20
2019-04-19T10:39:19.423Z,15.50
2019-04-19T10:41:48.026Z,14.80
2019-04-19T10:44:19.013Z,14.60
2019-04-19T10:46:47.383Z,15.00
2019-04-19T10:49:22.844Z,14.70
2019-04-19T10:51:50.221Z,14.70
2019-04-19T10:54:18.388Z,14.70
2019-04-19T10:56:54.392Z,14.70
2019-04-19T10:59:22.590Z,13.70
2019-04-19T11:02:10.590Z,14.60
2019-04-19T11:04:38.707Z,14.30
2019-04-19T11:07:07.632Z,13.80
2019-04-19T11:09:35.810Z,14.00
2019-04-19T11:12:06.041Z,14.00
2019-04-19T11:14:34.417Z,13.50
2019-04-19T11:17:03.101Z,13.60
2019-04-19T11:19:48.419Z,13.80
2019-04-19T11:22:01.550Z,14.00
2019-04-19T11:24:31.891Z,14.20
2019-04-19T11:27:01.260Z,13.20
2019-04-19T11:29:29.307Z,12.70
2019-04-19T11:32:06.502Z,13.90
2019-04-19T11:34:35.553Z,13.80
2019-04-19T11:37:03.625Z,12.20
2019-04-19T11:39:31.451Z,11.00
2019-04-19T11:41:59.420Z,13.10
2019-04-19T11:44:29.101Z,13.50
2019-04-19T11:46:58.215Z,13.20
2019-04-19T11:49:33.664Z,13.40
2019-04-19T11:51:56.128Z,14.00
2019-04-19T11:54:24.302Z,11.20
2019-04-19T11:57:04.063Z,13.10
2019-04-19T11:59:50.845Z,12.70
2019-04-19T12:02:27.752Z,12.80
2019-04-19T12:04:57.873Z,11.90
2019-04-19T12:07:26.310Z,13.40
2019-04-19T12:09:54.560Z,11.40
2019-04-19T12:12:23.376Z,11.10
2019-04-19T12:14:52.111Z,11.40
2019-04-19T12:17:21.103Z,11.70
2019-04-19T12:19:52.847Z,11.20
2019-04-19T12:22:19.204Z,9.50
2019-04-19T12:24:50.795Z,11.60
2019-04-19T12:27:17.934Z,11.40
2019-04-19T12:29:48.677Z,11.30
2019-04-19T12:32:15.691Z,9.80
2019-04-19T12:34:44.677Z,10.40
2019-04-19T12:37:13.311Z,12.10
2019-04-19T12:39:41.574Z,10.90
2019-04-19T12:42:22.447Z,9.70
2019-04-19T12:44:50.393Z,11.30
2019-04-19T12:47:19.272Z,9.90
2019-04-19T12:49:53.705Z,10.80
2019-04-19T12:52:17.794Z,10.10
2019-04-19T12:54:45.986Z,9.20
2019-04-19T12:57:14.116Z,10.40
2019-04-19T12:59:49.589Z,9.40
2019-04-19T13:02:26.290Z,10.80
2019-04-19T13:05:09.095Z,10.70
2019-04-19T13:07:36.902Z,9.50
2019-04-19T13:10:04.942Z,9.70
2019-04-19T13:12:33.011Z,10.50
2019-04-19T13:15:02.010Z,11.00
2019-04-19T13:17:30.529Z,9.10
2019-04-19T13:20:07.506Z,9.40
2019-04-19T13:22:28.344Z,9.30
2019-04-19T13:24:57.233Z,8.70
2019-04-19T13:27:35.527Z,8.00
2019-04-19T13:30:07.285Z,8.90
2019-04-19T13:32:25.989Z,7.90
2019-04-19T13:34:54.897Z,9.30
2019-04-19T13:37:41.147Z,8.50
2019-04-19T13:40:26.207Z,8.10
2019-04-19T13:42:56.993Z,7.20
2019-04-19T13:45:29.406Z,9.20
2019-04-19T13:47:54.619Z,7.40
2019-04-19T13:50:30.340Z,7.20
2019-04-19T13:52:52.950Z,5.90
2019-04-19T13:55:21.066Z,6.90
2019-04-19T13:57:49.379Z,7.50
2019-04-19T14:00:38.290Z,6.60
2019-04-19T14:03:07.656Z,6.00
2019-04-19T14:05:36.119Z,6.20
2019-04-19T14:08:04.297Z,7.90
2019-04-19T14:10:32.910Z,6.40
2019-04-19T14:13:01.215Z,5.10
2019-04-19T14:15:31.368Z,5.00
2019-04-19T14:17:59.226Z,4.80
2019-04-19T14:20:35.181Z,4.70
2019-04-19T14:22:57.294Z,5.80
2019-04-19T14:25:31.578Z,5.90
2019-04-19T14:28:05.188Z,5.60
2019-04-19T14:30:37.490Z,4.60
2019-04-19T14:33:12.738Z,4.10
2019-04-19T14:35:46.530Z,4.50
2019-04-19T14:38:19.255Z,6.10
2019-04-19T14:40:51.370Z,4.80
2019-04-19T14:43:22.788Z,4.40
2019-04-19T14:45:56.135Z,4.80
2019-04-19T14:48:31.722Z,5.40
2019-04-19T14:51:05.029Z,5.00
2019-04-19T14:53:30.797Z,5.60
2019-04-19T14:56:00.132Z,5.50
2019-04-19T14:58:28.643Z,4.60
2019-04-19T15:01:06.892Z,4.30
2019-04-19T15:03:36.944Z,4.20
2019-04-19T15:06:07.982Z,3.90
2019-04-19T15:08:37.257Z,4.40
2019-04-19T15:11:05.628Z,4.60
2019-04-19T15:13:34.760Z,4.20
2019-04-19T15:16:04.240Z,4.50
2019-04-19T15:18:32.400Z,4.90
2019-04-19T15:21:06.906Z,3.60
2019-04-19T15:23:32.316Z,3.80
2019-04-19T15:26:02.523Z,3.60
2019-04-19T15:28:31.024Z,3.90
2019-04-19T15:31:00.174Z,3.80
2019-04-19T15:33:30.070Z,4.40
2019-04-19T15:36:00.139Z,5.30
2019-04-19T15:38:28.041Z,5.50
2019-04-19T15:40:56.263Z,4.50
2019-04-19T15:43:24.293Z,5.80
2019-04-19T15:45:52.894Z,5.90
2019-04-19T15:48:33.245Z,6.10
2019-04-19T15:50:50.695Z,6.40
2019-04-19T15:53:20.163Z,6.00
2019-04-19T15:55:50.346Z,6.00
2019-04-19T15:58:20.324Z,6.00
2019-04-19T16:00:54.308Z,6.30
2019-04-19T16:03:41.403Z,6.00
2019-04-19T16:06:20.438Z,6.30
2019-04-19T16:08:57.033Z,7.30
2019-04-19T16:12:03.003Z,7.30
2019-04-19T16:14:32.310Z,7.20
2019-04-19T16:17:00.932Z,7.00
2019-04-19T16:19:30.255Z,7.00
2019-04-19T16:22:00.551Z,7.80
2019-04-19T16:24:29.338Z,7.10
2019-04-19T16:26:57.437Z,7.80
2019-04-19T16:29:35.441Z,7.60
2019-04-19T16:31:56.541Z,6.90
2019-04-19T16:34:25.123Z,7.70
2019-04-19T16:36:54.288Z,7.90
2019-04-19T16:39:31.399Z,7.60
2019-04-19T16:42:00.957Z,8.00
2019-04-19T16:44:29.723Z,8.40
2019-04-19T16:46:57.763Z,9.00
2019-04-19T16:49:26.766Z,8.90
2019-04-19T16:51:57.868Z,9.20
2019-04-19T16:54:25.883Z,9.20
2019-04-19T16:57:05.980Z,9.00
2019-04-19T16:59:23.962Z,9.00
2019-04-19T17:01:52.615Z,8.90
2019-04-19T17:04:24.092Z,9.40
2019-04-19T17:06:50.908Z,9.80
2019-04-19T17:09:18.880Z,10.00
2019-04-19T17:11:47.272Z,10.10
2019-04-19T17:14:16.649Z,10.50
2019-04-19T17:17:04.644Z,11.00
2019-04-19T17:19:44.544Z,10.50
2019-04-19T17:22:18.362Z,11.10
2019-04-19T17:24:43.079Z,11.00
2019-04-19T17:27:11.296Z,11.70
2019-04-19T17:29:39.163Z,11.60
2019-04-19T17:32:07.999Z,11.60
2019-04-19T17:34:36.750Z,12.80
2019-04-19T17:37:04.582Z,12.30
2019-04-19T17:39:32.950Z,12.30
2019-04-19T17:42:01.113Z,13.10
2019-04-19T17:44:29.443Z,13.10
2019-04-19T17:46:58.390Z,13.90
2019-04-19T17:49:26.632Z,14.70
2019-04-19T17:52:02.256Z,15.00
2019-04-19T17:54:43.240Z,16.30
2019-04-19T17:56:55.427Z,15.70
2019-04-19T17:59:26.458Z,15.60
2019-04-19T18:01:55.145Z,15.30
2019-04-19T18:04:24.064Z,14.80
2019-04-19T18:06:57.936Z,16.10
2019-04-19T18:09:23.386Z,15.80
2019-04-19T18:11:53.455Z,16.40
2019-04-19T18:14:29.625Z,17.10
2019-04-19T18:16:58.771Z,17.30
2019-04-19T18:19:31.774Z,17.00
2019-04-19T18:22:09.723Z,17.30
2019-04-19T18:24:29.758Z,16.90
2019-04-19T18:27:02.167Z,17.20
2019-04-19T18:29:29.115Z,17.00
2019-04-19T18:32:10.048Z,16.80
2019-04-19T18:34:43.377Z,16.70
2019-04-19T18:37:15.261Z,17.80
2019-04-19T18:39:42.321Z,17.90
2019-04-19T18:42:11.817Z,17.80
2019-04-19T18:44:47.705Z,18.40
2019-04-19T18:47:12.395Z,18.20
2019-04-19T18:49:41.529Z,18.10
2019-04-19T18:52:21.954Z,17.70
2019-04-19T18:54:50.090Z,18.80
2019-04-19T18:57:11.062Z,18.60
2019-04-19T18:59:40.539Z,19.50
2019-04-19T19:02:14.607Z,19.00
2019-04-19T19:04:39.009Z,18.40
2019-04-19T19:07:14.578Z,18.90
2019-04-19T19:09:44.789Z,19.40
2019-04-19T19:12:13.056Z,19.50
2019-04-19T19:14:39.506Z,19.60
2019-04-19T19:17:13.625Z,20.40
2019-04-19T19:19:41.470Z,20.70
2019-04-19T19:22:12.867Z,20.70
2019-04-19T19:24:59.370Z,20.90
2019-04-19T19:27:16.733Z,21.20
2019-04-19T19:29:40.392Z,21.00
2019-04-19T19:32:12.411Z,21.70
2019-04-19T19:34:39.956Z,21.60
2019-04-19T19:37:11.177Z,20.90
2019-04-19T19:39:41.064Z,21.90
2019-04-19T19:44:49.933Z,22.00
2019-04-19T19:47:54.464Z,22.30
2019-04-19T19:50:30.221Z,22.60
2019-04-19T19:52:54.545Z,22.30
2019-04-19T19:55:17.572Z,23.70
2019-04-19T19:57:42.996Z,23.80
2019-04-19T20:00:08.998Z,24.00
2019-04-19T20:02:45.404Z,25.50
2019-04-19T20:05:00.282Z,25.30
2019-04-19T20:07:37.145Z,25.90
2019-04-19T20:10:05.596Z,26.00
2019-04-19T20:12:34.277Z,25.80
2019-04-19T20:15:01.572Z,24.60
2019-04-19T20:17:29.301Z,25.20
2019-04-19T20:19:58.256Z,25.10
2019-04-19T20:22:37.602Z,25.90
2019-04-19T20:25:11.251Z,26.00
2019-04-19T20:27:36.606Z,26.00
2019-04-19T20:30:00.813Z,26.30
2019-04-19T20:32:28.411Z,25.90
2019-04-19T20:35:06.692Z,26.50
2019-04-19T20:37:28.828Z,26.30
2019-04-19T20:40:02.986Z,26.60
2019-04-19T20:42:46.212Z,25.70
2019-04-19T20:45:07.367Z,26.70
2019-04-19T20:47:32.873Z,26.90
2019-04-19T20:50:02.325Z,27.20
2019-04-19T20:52:43.844Z,26.80
2019-04-19T20:55:20.376Z,26.50
2019-04-19T20:58:00.979Z,25.70
2019-04-19T21:00:46.200Z,25.80
2019-04-19T21:03:15.732Z,25.50
2019-04-19T21:05:49.209Z,25.10
2019-04-19T21:08:17.745Z,25.40
2019-04-19T21:10:54.066Z,25.70
2019-04-19T21:13:20.525Z,25.80
2019-04-19T21:15:46.609Z,26.30
2019-04-19T21:18:22.135Z,25.80
2019-04-19T21:20:46.758Z,26.40
2019-04-19T21:23:21.733Z,26.10
2019-04-19T21:25:52.230Z,26.80
2019-04-19T21:28:16.789Z,27.30
2019-04-19T21:30:51.006Z,27.00
2019-04-19T21:33:17.066Z,27.00
2019-04-19T21:35:53.568Z,25.80
2019-04-19T21:38:20.031Z,26.40
2019-04-19T21:40:46.943Z,25.90
2019-04-19T21:43:16.842Z,26.00
2019-04-19T21:45:48.362Z,26.00
2019-04-19T21:48:18.898Z,26.30
2019-04-19T21:50:48.391Z,26.60
2019-04-19T21:53:14.679Z,26.40
2019-04-19T21:55:46.915Z,26.20
2019-04-19T21:58:17.741Z,26.40
2019-04-19T22:01:02.494Z,26.20
2019-04-19T22:03:28.490Z,26.50
2019-04-19T22:05:57.083Z,26.40
2019-04-19T22:08:29.621Z,26.70
2019-04-19T22:10:56.226Z,27.00
2019-04-19T22:13:30.795Z,26.60
2019-04-19T22:15:57.034Z,27.20
2019-04-19T22:18:23.872Z,26.50
2019-04-19T22:20:57.077Z,27.40
2019-04-19T22:23:22.452Z,27.20
2019-04-19T22:26:05.103Z,27.20
2019-04-19T22:28:23.546Z,27.20
2019-04-19T22:30:54.638Z,27.20
2019-04-19T22:33:22.404Z,27.60
2019-04-19T22:35:54.918Z,28.20
2019-04-19T22:38:22.411Z,27.30
2019-04-19T22:40:50.536Z,28.50
2019-04-19T22:43:20.573Z,28.30
2019-04-19T22:45:55.461Z,29.00
2019-04-19T22:48:20.195Z,29.10
2019-04-19T22:50:48.622Z,29.80
2019-04-19T22:53:27.629Z,30.10
2019-04-19T22:55:53.867Z,30.70
2019-04-19T22:58:24.093Z,30.00
2019-04-19T23:00:49.370Z,29.60
2019-04-19T23:03:28.537Z,30.20
2019-04-19T23:05:52.843Z,28.90
2019-04-19T23:08:27.240Z,29.80
2019-04-19T23:10:58.601Z,28.20
2019-04-19T23:13:23.748Z,29.50
2019-04-19T23:15:57.208Z,29.20
2019-04-19T23:18:24.888Z,28.80
2019-04-19T23:20:56.583Z,29.40
2019-04-19T23:23:25.561Z,29.00
2019-04-19T23:26:08.823Z,29.60
2019-04-19T23:28:27.303Z,30.20
2019-04-19T23:30:59.695Z,31.10
2019-04-19T23:33:22.855Z,30.10
2019-04-19T23:35:53.281Z,32.20
2019-04-19T23:38:26.140Z,31.80
2019-04-19T23:40:53.141Z,32.60
2019-04-19T23:43:27.667Z,32.00
2019-04-19T23:45:52.408Z,32.80
2019-04-19T23:48:24.981Z,32.00
2019-04-19T23:50:50.913Z,32.20
2019-04-19T23:53:18.794Z,32.80
2019-04-19T23:55:46.795Z,32.60
2019-04-19T23:58:22.862Z,33.70
